Time;durP1;ratioP1;P1;durP2;ratioP2;P2;SDS_P1;SDS_P2;PMS_P1;PMS_P2;Temp;Humidity;BMP_temperature;BMP_pressure;BME280_temperature;BME280_humidity;BME280_pressure;Samples;Min_cycle;Max_cycle;Signal;HPM_P1;HPM_P2
2023/01/15 00:02:41;;;;;;;7.40;3.00;;;;;;;8.05;59.40;99261.94;129963;1251;114434;-73
2023/01/15 00:05:47;;;;;;;6.60;3.30;;;;;;;8.06;59.04;99248.95;129031;1256;114421;-72
2023/01/15 00:08:52;;;;;;;5.80;2.70;;;;;;;8.06;59.36;99241.48;129019;1254;127809;-73
2023/01/15 00:12:01;;;;;;;8.10;3.40;;;;;;;8.06;59.23;99235.26;128858;1251;114738;-65
2023/01/15 00:15:07;;;;;;;4.90;2.60;;;;;;;8.07;59.13;99230.20;128815;1255;113233;-65
2023/01/15 00:18:13;;;;;;;5.90;2.40;;;;;;;8.08;59.42;99224.84;128909;1251;115379;-65
2023/01/15 00:21:18;;;;;;;12.10;3.50;;;;;;;8.09;59.21;99214.64;128741;1251;114039;-64
2023/01/15 00:27:52;;;;;;;4.80;2.30;;;;;;;8.14;59.40;99211.52;128789;1251;115489;-64
2023/01/15 00:30:59;;;;;;;15.70;7.90;;;;;;;8.15;58.80;99207.17;128969;1255;114025;-67
2023/01/15 00:34:03;;;;;;;9.00;4.30;;;;;;;8.17;58.60;99209.02;128868;1255;113563;-66
2023/01/15 00:37:06;;;;;;;5.50;2.40;;;;;;;8.18;59.22;99211.98;131785;1251;114933;-67
2023/01/15 00:40:13;;;;;;;6.10;3.20;;;;;;;8.19;59.42;99211.38;128950;1257;115525;-67
2023/01/15 00:43:16;;;;;;;4.60;2.60;;;;;;;8.19;59.78;99206.37;131683;1251;114725;-67
2023/01/15 00:46:22;;;;;;;4.90;3.30;;;;;;;8.20;59.49;99205.64;128937;1251;113435;-66
2023/01/15 00:49:24;;;;;;;6.00;3.50;;;;;;;8.21;59.70;99205.94;131998;1251;114503;-66
2023/01/15 00:52:29;;;;;;;4.80;2.70;;;;;;;8.20;59.70;99197.43;128794;1255;114596;-66
2023/01/15 00:55:34;;;;;;;10.30;3.50;;;;;;;8.19;59.63;99189.17;128849;1256;128037;-65
2023/01/15 00:58:43;;;;;;;7.40;3.30;;;;;;;8.18;60.08;99182.11;128807;1251;114864;-66
2023/01/15 01:01:45;;;;;;;6.00;3.20;;;;;;;8.17;60.27;99175.77;131763;1259;114030;-66
2023/01/15 01:04:51;;;;;;;6.60;3.60;;;;;;;8.15;60.29;99177.45;132008;1251;114697;-66
2023/01/15 01:07:58;;;;;;;5.80;2.70;;;;;;;8.15;60.74;99183.73;128883;1256;114513;-65
2023/01/15 01:11:11;;;;;;;4.90;2.90;;;;;;;8.14;60.91;99175.57;128893;1257;127919;-67
2023/01/15 01:14:20;;;;;;;5.90;2.80;;;;;;;8.12;61.20;99151.12;129149;1257;115293;-65
2023/01/15 01:17:25;;;;;;;5.00;2.80;;;;;;;8.11;61.26;99160.84;129102;1256;114690;-65
2023/01/15 01:20:30;;;;;;;5.40;2.50;;;;;;;8.10;61.58;99163.74;128988;1256;114560;-66
2023/01/15 01:23:34;;;;;;;7.50;3.20;;;;;;;8.10;61.50;99163.70;129387;1270;114706;-65
2023/01/15 01:26:38;;;;;;;5.40;2.90;;;;;;;8.11;61.77;99162.80;131977;1251;128920;-70
2023/01/15 01:29:45;;;;;;;6.10;3.20;;;;;;;8.10;62.22;99156.24;130512;1256;115339;-67
2023/01/15 01:32:49;;;;;;;5.80;3.60;;;;;;;8.10;62.46;99162.49;128750;1259;114342;-64
2023/01/15 01:35:54;;;;;;;3.30;2.40;;;;;;;8.11;62.33;99164.74;128918;1255;113597;-65
2023/01/15 01:39:00;;;;;;;4.00;3.10;;;;;;;8.11;62.25;99153.38;128863;1256;114690;-67
2023/01/15 01:42:16;;;;;;;6.60;3.00;;;;;;;8.10;62.65;99146.13;128896;1256;128852;-72
2023/01/15 01:45:30;;;;;;;5.70;2.50;;;;;;;8.11;62.94;99140.92;128711;1258;115576;-73
2023/01/15 01:48:39;;;;;;;4.20;2.60;;;;;;;8.11;62.74;99134.33;128842;1251;115393;-64
2023/01/15 01:51:52;;;;;;;4.60;2.70;;;;;;;8.11;63.15;99130.23;128852;1251;114630;-65
2023/01/15 01:54:57;;;;;;;4.70;2.50;;;;;;;8.11;63.18;99128.08;128856;1259;115177;-69
2023/01/15 01:58:03;;;;;;;5.30;3.00;;;;;;;8.12;63.46;99118.23;128772;1251;127844;-65
2023/01/15 02:01:07;;;;;;;4.40;2.80;;;;;;;8.13;63.47;99112.66;128755;1256;114793;-64
2023/01/15 02:04:12;;;;;;;3.50;2.50;;;;;;;8.14;63.33;99105.52;128740;1256;113398;-65
2023/01/15 02:07:18;;;;;;;3.30;2.30;;;;;;;8.15;63.62;99100.64;128778;1256;114063;-66
2023/01/15 02:10:20;;;;;;;5.00;2.70;;;;;;;8.16;63.62;99100.60;128824;1257;114041;-66
2023/01/15 02:13:33;;;;;;;4.20;2.80;;;;;;;8.17;63.67;99097.71;128920;1257;127760;-66
2023/01/15 02:16:46;;;;;;;5.40;2.70;;;;;;;8.18;63.68;99096.54;128817;1255;115851;-65
2023/01/15 02:20:09;;;;;;;5.70;2.70;;;;;;;8.19;64.02;99093.45;128860;1256;114428;-66
2023/01/15 02:23:24;;;;;;;5.00;2.70;;;;;;;8.20;64.36;99101.77;128815;1259;114053;-68
2023/01/15 02:27:03;;;;;;;6.10;2.60;;;;;;;8.20;64.47;99098.38;128953;1256;114690;-66
2023/01/15 02:30:12;;;;;;;3.70;2.70;;;;;;;8.21;64.64;99097.96;128851;1257;128941;-65
2023/01/15 02:33:23;;;;;;;4.70;2.50;;;;;;;8.23;64.82;99090.77;128896;1256;114699;-72
2023/01/15 02:36:29;;;;;;;2.50;2.30;;;;;;;8.24;64.72;99076.85;128828;1256;114064;-71
2023/01/15 02:39:35;;;;;;;7.00;2.90;;;;;;;8.24;65.12;99065.07;128882;1253;114195;-65
2023/01/15 02:42:44;;;;;;;2.90;2.30;;;;;;;8.25;65.15;99053.48;128833;1251;113625;-71
2023/01/15 02:45:53;;;;;;;5.80;3.10;;;;;;;8.24;65.56;99058.13;128863;1256;128513;-66
2023/01/15 02:49:03;;;;;;;4.40;2.70;;;;;;;8.24;65.60;99066.66;128785;1256;114721;-68
2023/01/15 02:52:28;;;;;;;5.20;3.00;;;;;;;8.25;65.44;99071.98;129459;1251;113167;-73
2023/01/15 02:55:40;;;;;;;2.80;2.20;;;;;;;8.25;66.00;99069.13;128869;1251;113249;-65
2023/01/15 02:58:53;;;;;;;5.10;2.40;;;;;;;8.24;65.86;99068.98;129036;1251;114696;-72
2023/01/15 03:02:01;;;;;;;3.00;2.10;;;;;;;8.25;65.96;99062.20;128903;1256;128131;-65
2023/01/15 03:05:28;;;;;;;5.10;2.40;;;;;;;8.26;65.96;99059.63;128817;1257;114851;-65
2023/01/15 03:08:35;;;;;;;4.40;2.20;;;;;;;8.27;66.32;99049.42;128934;1256;114432;-66
2023/01/15 03:11:43;;;;;;;4.00;2.30;;;;;;;8.27;66.32;99047.67;131921;1256;114424;-70
2023/01/15 03:15:09;;;;;;;2.80;2.00;;;;;;;8.27;66.66;99043.05;128791;1255;114670;-64
2023/01/15 03:18:14;;;;;;;3.80;2.60;;;;;;;8.27;66.64;99033.27;128829;1256;126911;-64
2023/01/15 03:21:32;;;;;;;3.30;2.40;;;;;;;8.26;66.53;99026.02;128719;1251;114889;-72
2023/01/15 03:25:24;;;;;;;3.00;2.10;;;;;;;8.26;66.86;99018.02;128904;1251;114881;-73
2023/01/15 03:28:34;;;;;;;4.30;1.90;;;;;;;8.25;67.15;99005.44;128395;1262;113457;-66
2023/01/15 03:31:44;;;;;;;3.20;2.10;;;;;;;8.24;67.18;98990.19;127953;1265;114790;-65
2023/01/15 03:34:50;;;;;;;;;;;;;;;8.24;67.60;98999.80;128051;1262;127825;-66
2023/01/15 03:37:54;;;;;;;4.70;2.20;;;;;;;8.22;67.55;99016.46;128009;1265;114763;-66
2023/01/15 03:41:17;;;;;;;3.70;2.10;;;;;;;8.20;68.00;99017.11;128081;1262;113426;-65
2023/01/15 03:44:51;;;;;;;3.20;1.80;;;;;;;8.21;68.06;99001.95;128307;1262;114380;-67
2023/01/15 03:48:01;;;;;;;;;;;;;;;8.22;68.12;99007.22;128341;1262;114459;-70
2023/01/15 03:51:12;;;;;;;4.10;1.90;;;;;;;8.22;68.22;99015.23;131324;1260;127806;-65
2023/01/15 03:54:26;;;;;;;3.70;1.80;;;;;;;8.24;68.12;99010.31;128197;1263;115452;-66
2023/01/15 03:57:50;;;;;;;3.10;1.90;;;;;;;8.26;68.41;99004.16;128202;1260;113504;-68
2023/01/15 04:00:59;;;;;;;1.50;1.40;;;;;;;8.28;68.30;98997.63;128346;1260;114505;-70
2023/01/15 04:04:05;;;;;;;1.80;1.40;;;;;;;8.29;68.63;98995.06;128312;1262;114456;-65
2023/01/15 04:07:13;;;;;;;2.90;1.70;;;;;;;8.29;68.88;98993.83;128919;1251;128062;-69
2023/01/15 04:10:18;;;;;;;2.40;1.60;;;;;;;8.29;69.18;98994.52;129007;1256;114789;-66
2023/01/15 04:13:24;;;;;;;6.10;2.00;;;;;;;8.28;69.56;98986.77;132040;1251;114530;-69
2023/01/15 04:16:30;;;;;;;2.10;1.60;;;;;;;8.27;69.93;98991.28;128794;1256;114044;-64
2023/01/15 04:19:36;;;;;;;3.50;1.70;;;;;;;8.27;69.71;98987.55;128794;1251;114687;-66
2023/01/15 04:22:40;;;;;;;2.50;1.60;;;;;;;8.26;70.05;98985.11;132057;1251;128725;-70
2023/01/15 04:25:47;;;;;;;2.40;1.70;;;;;;;8.26;70.61;98976.93;128984;1256;114671;-65
2023/01/15 04:28:53;;;;;;;1.80;1.70;;;;;;;8.25;70.79;98971.46;129796;1254;114431;-66
2023/01/15 04:31:58;;;;;;;2.30;1.90;;;;;;;8.25;71.23;98974.52;128816;1251;114469;-65
2023/01/15 04:35:05;;;;;;;2.30;1.70;;;;;;;8.25;71.17;98973.27;128969;1251;114866;-65
2023/01/15 04:38:12;;;;;;;2.90;1.40;;;;;;;8.23;71.68;98969.43;128930;1266;127769;-66
2023/01/15 04:44:42;;;;;;;1.80;1.30;;;;;;;8.20;72.30;98956.80;132062;1255;114696;-71
2023/01/15 04:47:44;;;;;;;1.60;1.20;;;;;;;8.19;72.40;98950.44;132408;1251;113504;-72
2023/01/15 04:50:49;;;;;;;3.90;1.90;;;;;;;8.18;72.67;98944.52;129137;1251;114870;-66
2023/01/15 04:53:54;;;;;;;1.70;1.60;;;;;;;8.17;72.79;98941.36;129248;1255;128792;-66
2023/01/15 04:56:59;;;;;;;3.40;1.80;;;;;;;8.15;73.38;98930.98;128906;1251;114373;-67
2023/01/15 05:00:05;;;;;;;3.30;2.10;;;;;;;8.13;73.72;98924.88;128834;1256;113236;-67
2023/01/15 05:03:13;;;;;;;3.60;1.80;;;;;;;8.10;73.87;98919.92;128928;1257;114261;-66
2023/01/15 05:06:20;;;;;;;2.90;1.90;;;;;;;8.08;73.93;98917.59;128785;1251;113274;-66
2023/01/15 05:09:25;;;;;;;3.20;2.40;;;;;;;8.06;73.98;98915.71;128762;1269;127994;-65
2023/01/15 05:12:30;;;;;;;3.10;2.40;;;;;;;8.03;74.33;98915.49;128816;1251;114890;-65
2023/01/15 05:15:37;;;;;;;4.60;2.80;;;;;;;8.01;74.45;98911.58;128883;1257;113270;-66
2023/01/15 05:18:45;;;;;;;3.00;2.40;;;;;;;8.00;74.51;98910.71;128815;1256;114434;-66
2023/01/15 05:21:50;;;;;;;4.70;3.20;;;;;;;7.99;74.66;98904.59;128778;1256;114371;-66
2023/01/15 05:24:56;;;;;;;5.00;2.80;;;;;;;7.98;74.82;98896.98;128805;1256;127873;-68
2023/01/15 05:28:01;;;;;;;7.50;4.00;;;;;;;7.97;74.69;98898.13;128977;1251;114703;-71
2023/01/15 05:31:11;;;;;;;3.80;2.60;;;;;;;7.96;74.87;98896.55;128847;1256;114431;-72
2023/01/15 05:34:19;;;;;;;3.50;2.70;;;;;;;7.96;75.01;98895.86;128934;1255;114638;-69
2023/01/15 05:37:23;;;;;;;3.70;2.10;;;;;;;7.96;75.26;98899.23;129109;1256;114681;-72
2023/01/15 05:40:28;;;;;;;3.70;2.30;;;;;;;7.96;75.26;98901.03;128863;1257;127894;-68
2023/01/15 05:43:33;;;;;;;3.80;2.20;;;;;;;7.96;75.30;98902.25;128860;1257;114740;-71
2023/01/15 05:46:43;;;;;;;4.50;3.00;;;;;;;7.97;75.51;98905.03;129006;1257;114695;-71
2023/01/15 05:49:49;;;;;;;4.20;2.90;;;;;;;7.98;75.45;98906.94;128863;1256;114430;-69
2023/01/15 05:52:54;;;;;;;7.40;4.20;;;;;;;7.98;75.74;98904.98;128847;1259;114694;-73
2023/01/15 05:56:00;;;;;;;6.20;4.00;;;;;;;7.99;75.53;98906.71;128757;1257;127690;-73
2023/01/15 05:59:05;;;;;;;6.80;3.50;;;;;;;8.00;75.81;98907.03;128892;1251;114712;-73
2023/01/15 06:02:10;;;;;;;6.90;4.40;;;;;;;8.00;75.78;98909.86;128864;1256;114440;-71
2023/01/15 06:05:19;;;;;;;8.50;5.10;;;;;;;8.01;76.10;98913.86;128904;1251;114032;-71
2023/01/15 06:08:24;;;;;;;8.60;5.60;;;;;;;8.01;76.23;98916.71;128905;1256;114576;-68
2023/01/15 06:11:30;;;;;;;10.90;6.50;;;;;;;8.03;76.28;98921.77;128840;1251;127161;-70
2023/01/15 06:14:35;;;;;;;7.10;4.40;;;;;;;8.02;76.59;98918.77;128827;1257;114690;-67
2023/01/15 06:17:40;;;;;;;10.60;5.00;;;;;;;8.02;76.93;98920.06;128816;1260;113285;-66
2023/01/15 06:20:45;;;;;;;10.50;5.40;;;;;;;8.02;76.91;98922.55;128853;1259;114469;-68
2023/01/15 06:23:55;;;;;;;68.90;31.60;;;;;;;8.01;77.13;98925.05;128904;1256;114706;-66
2023/01/15 06:27:00;;;;;;;9.30;5.30;;;;;;;8.00;77.01;98922.99;129045;1264;128710;-71
2023/01/15 06:30:05;;;;;;;11.40;3.90;;;;;;;8.00;77.05;98920.55;128933;1256;114700;-70
2023/01/15 06:33:10;;;;;;;;;;;;;;;7.99;77.14;98914.88;128924;1257;114358;-68
2023/01/15 06:36:20;;;;;;;3.80;2.50;;;;;;;7.98;77.66;98910.34;128895;1255;114263;-67
2023/01/15 06:39:25;;;;;;;3.00;2.00;;;;;;;7.96;77.65;98906.73;128821;1264;114709;-71
2023/01/15 06:49:22;;;;;;;3.10;2.10;;;;;;;7.92;77.84;98901.46;129332;1257;114464;-65
2023/01/15 06:52:28;;;;;;;2.80;2.10;;;;;;;7.91;77.96;98903.10;129290;1257;114426;-65
2023/01/15 06:55:31;;;;;;;3.90;2.20;;;;;;;7.90;78.04;98904.77;131991;1256;114464;-71
2023/01/15 06:58:39;;;;;;;4.20;2.20;;;;;;;7.90;78.15;98897.65;129310;1251;128342;-65
2023/01/15 07:01:44;;;;;;;3.80;2.50;;;;;;;7.90;78.27;98897.63;129125;1251;115532;-65
2023/01/15 07:04:50;;;;;;;4.30;2.70;;;;;;;7.90;78.52;98898.39;128983;1251;114035;-65
2023/01/15 07:07:55;;;;;;;3.20;2.10;;;;;;;7.90;78.29;98895.86;129342;1260;114705;-64
2023/01/15 07:11:07;;;;;;;5.20;2.50;;;;;;;7.90;78.40;98896.74;128804;1256;114700;-65
2023/01/15 07:14:19;;;;;;;3.00;2.20;;;;;;;7.90;78.58;98896.73;129033;1257;128651;-64
2023/01/15 07:17:23;;;;;;;3.20;2.30;;;;;;;7.91;78.58;98898.84;128968;1251;114940;-65
2023/01/15 07:20:28;;;;;;;;;;;;;;;7.91;78.74;98892.09;128997;1256;114456;-65
2023/01/15 07:23:33;;;;;;;3.30;2.20;;;;;;;7.91;78.87;98894.41;128925;1256;114818;-64
2023/01/15 07:26:38;;;;;;;2.70;2.00;;;;;;;7.90;78.92;98888.41;128923;1273;114431;-63
2023/01/15 07:29:46;;;;;;;2.10;1.90;;;;;;;7.91;78.85;98888.01;128748;1253;127818;-63
2023/01/15 07:32:53;;;;;;;3.30;2.40;;;;;;;7.91;79.16;98890.11;129056;1257;114842;-64
2023/01/15 07:36:01;;;;;;;3.60;2.30;;;;;;;7.93;79.05;98891.64;128944;1257;114432;-64
2023/01/15 07:39:09;;;;;;;4.10;2.50;;;;;;;7.95;79.06;98887.59;129448;1260;113436;-68
2023/01/15 07:52:39;;;;;;;3.80;2.00;;;;;;;8.01;78.14;98874.20;129065;1251;114085;-68
2023/01/15 07:55:44;;;;;;;3.60;2.10;;;;;;;8.04;78.08;98869.79;128971;1254;114033;-67
2023/01/15 07:58:49;;;;;;;3.10;2.40;;;;;;;8.06;77.95;98870.16;128973;1251;114417;-64
2023/01/15 08:01:54;;;;;;;3.50;2.10;;;;;;;8.09;77.82;98862.73;129049;1255;128758;-65
2023/01/15 08:04:59;;;;;;;5.30;2.50;;;;;;;8.11;77.72;98857.80;129196;1257;114706;-64
2023/01/15 08:08:07;;;;;;;;;;;;;;;8.13;77.04;98849.99;129723;1256;113210;-63
2023/01/15 08:18:06;;;;;;;3.40;2.20;;;;;;;8.19;76.63;98841.65;129109;1257;127911;-65
2023/01/15 08:21:15;;;;;;;2.40;1.90;;;;;;;8.21;76.48;98840.46;129288;1257;114706;-67
2023/01/15 08:24:20;;;;;;;3.00;2.10;;;;;;;8.24;76.26;98844.02;129372;1257;113450;-65
2023/01/15 08:27:25;;;;;;;3.30;2.40;;;;;;;8.26;76.13;98851.02;129077;1258;113121;-65
2023/01/15 08:30:28;;;;;;;;;;;;;;;8.28;75.81;98849.63;129124;1257;114693;-66
2023/01/15 08:33:33;;;;;;;2.80;2.40;;;;;;;8.30;75.83;98851.13;129076;1257;115292;-61
2023/01/15 08:36:38;;;;;;;5.70;3.10;;;;;;;8.35;75.88;98844.54;129077;1251;114905;-60
2023/01/15 08:39:44;;;;;;;5.20;2.70;;;;;;;8.41;75.36;98841.18;129418;1256;113484;-60
2023/01/15 08:42:54;;;;;;;3.20;2.50;;;;;;;8.46;75.30;98834.61;129164;1257;113177;-64
2023/01/15 08:46:05;;;;;;;3.00;2.50;;;;;;;8.53;75.45;98831.35;130099;1256;114706;-62
2023/01/15 08:49:12;;;;;;;4.10;3.00;;;;;;;8.59;75.23;98840.22;129375;1255;128794;-61
2023/01/15 08:52:17;;;;;;;3.40;2.30;;;;;;;8.64;75.19;98842.72;129003;1269;114885;-62
2023/01/15 08:55:22;;;;;;;7.60;3.90;;;;;;;8.69;74.79;98836.53;129031;1257;114427;-63
2023/01/15 08:58:33;;;;;;;3.20;2.60;;;;;;;8.74;74.65;98841.34;129287;1257;113451;-65
2023/01/15 09:01:39;;;;;;;5.20;3.50;;;;;;;8.80;74.70;98839.20;129169;1257;114440;-64
2023/01/15 09:04:45;;;;;;;4.70;3.10;;;;;;;8.84;74.15;98838.23;129013;1264;128161;-62
2023/01/15 09:07:52;;;;;;;4.00;3.20;;;;;;;8.87;74.26;98839.07;128903;1257;115330;-64
2023/01/15 09:11:00;;;;;;;4.90;2.80;;;;;;;8.92;74.13;98837.71;129019;1255;114606;-64
2023/01/15 09:14:06;;;;;;;3.50;2.30;;;;;;;8.97;73.83;98838.79;129025;1255;113510;-63
2023/01/15 09:17:11;;;;;;;4.10;2.90;;;;;;;9.00;73.52;98843.39;128845;1251;114712;-64
2023/01/15 09:20:16;;;;;;;3.10;2.70;;;;;;;9.05;73.50;98845.02;128877;1252;127874;-64
2023/01/15 09:23:20;;;;;;;2.90;2.60;;;;;;;9.10;73.37;98837.00;128870;1251;114706;-65
2023/01/15 09:26:35;;;;;;;5.60;3.50;;;;;;;9.15;73.23;98834.39;128977;1257;113549;-61
2023/01/15 09:29:39;;;;;;;5.70;3.80;;;;;;;9.20;73.36;98834.57;128941;1251;113317;-65
2023/01/15 09:32:43;;;;;;;4.00;3.00;;;;;;;9.24;72.76;98836.44;128902;1256;114949;-64
2023/01/15 09:35:48;;;;;;;5.20;2.90;;;;;;;9.26;72.79;98844.86;128943;1257;128809;-64
2023/01/15 09:38:56;;;;;;;4.90;3.10;;;;;;;9.29;72.53;98838.09;129001;1251;114718;-64
2023/01/15 09:42:06;;;;;;;4.10;3.10;;;;;;;9.33;72.27;98837.15;129006;1256;113297;-64
2023/01/15 09:45:50;;;;;;;3.90;3.20;;;;;;;9.33;72.12;98838.67;128969;1251;114559;-65
2023/01/15 09:48:55;;;;;;;4.40;2.60;;;;;;;9.38;72.20;98843.16;128976;1251;113802;-65
2023/01/15 09:52:02;;;;;;;4.30;2.90;;;;;;;9.42;72.24;98834.73;129262;1257;127976;-64
2023/01/15 09:55:25;;;;;;;3.60;2.80;;;;;;;9.46;72.11;98831.75;131100;1251;115150;-64
2023/01/15 09:58:37;;;;;;;4.20;3.10;;;;;;;9.50;71.93;98836.13;128980;1251;113190;-64
2023/01/15 10:01:42;;;;;;;3.80;2.50;;;;;;;9.53;71.68;98831.27;129032;1251;113365;-65
2023/01/15 10:04:49;;;;;;;4.60;2.70;;;;;;;9.56;71.46;98828.59;129163;1251;113282;-65
2023/01/15 10:08:01;;;;;;;3.70;2.80;;;;;;;9.58;71.28;98825.59;128983;1251;128965;-65
2023/01/15 10:11:18;;;;;;;5.40;3.50;;;;;;;9.61;71.17;98821.84;128989;1251;115256;-62
2023/01/15 10:14:52;;;;;;;5.60;3.80;;;;;;;9.65;71.13;98828.87;128955;1251;113913;-65
2023/01/15 10:18:01;;;;;;;4.10;3.20;;;;;;;9.69;70.73;98816.79;128309;1263;113429;-65
2023/01/15 10:21:14;;;;;;;12.50;11.20;;;;;;;9.71;70.60;98809.93;128296;1260;113308;-66
2023/01/15 10:24:40;;;;;;;9.80;6.00;;;;;;;9.73;70.48;98806.35;128434;1266;127060;-62
2023/01/15 10:27:47;;;;;;;9.30;7.40;;;;;;;9.74;70.71;98806.11;128116;1260;114934;-65
2023/01/15 10:30:55;;;;;;;8.60;6.70;;;;;;;9.78;70.38;98803.20;128232;1263;113271;-65
2023/01/15 10:34:24;;;;;;;6.10;4.50;;;;;;;9.81;70.07;98797.45;128210;1260;115552;-65
2023/01/15 10:37:40;;;;;;;6.90;4.30;;;;;;;9.80;69.90;98794.10;128065;1260;113339;-65
2023/01/15 10:41:13;;;;;;;5.30;3.50;;;;;;;9.80;70.00;98794.86;127922;1266;127255;-66
2023/01/15 10:44:27;;;;;;;9.80;6.80;;;;;;;9.81;69.95;98796.20;128411;1261;114707;-65
2023/01/15 10:47:41;;;;;;;18.20;12.50;;;;;;;9.83;69.83;98790.72;128360;1260;115518;-65
2023/01/15 10:50:53;;;;;;;10.00;7.60;;;;;;;9.86;69.86;98797.97;128416;1260;113354;-64
2023/01/15 10:54:31;;;;;;;10.50;7.30;;;;;;;9.87;69.28;98787.38;128503;1258;113316;-66
2023/01/15 10:58:02;;;;;;;14.60;10.30;;;;;;;9.88;69.40;98781.61;128865;1257;127737;-66
2023/01/15 11:01:20;;;;;;;10.80;9.20;;;;;;;9.91;69.41;98787.34;129046;1251;115666;-65
2023/01/15 11:04:32;;;;;;;19.40;17.40;;;;;;;9.88;68.79;98781.77;128944;1255;113210;-66
2023/01/15 11:07:59;;;;;;;6.60;5.40;;;;;;;9.89;68.99;98775.30;129003;1257;113178;-64
2023/01/15 11:11:20;;;;;;;5.20;3.90;;;;;;;9.91;68.91;98776.96;129241;1251;114028;-64
2023/01/15 11:22:05;;;;;;;7.20;4.60;;;;;;;9.84;68.49;98777.95;129368;1251;113385;-60
2023/01/15 11:25:13;;;;;;;12.10;10.40;;;;;;;9.84;68.20;98775.33;132051;1251;113448;-65
2023/01/15 11:28:20;;;;;;;;;;;;;;;9.84;68.36;98771.34;131316;1251;113243;-62
2023/01/15 11:31:41;;;;;;;6.10;5.10;;;;;;;9.87;68.44;98766.17;129691;1251;127707;-61
2023/01/15 11:34:59;;;;;;;12.10;8.10;;;;;;;9.90;68.35;98763.33;130820;1251;114690;-65
2023/01/15 11:38:05;;;;;;;5.90;4.10;;;;;;;9.91;68.28;98774.30;129747;1257;113260;-64
2023/01/15 11:51:57;;;;;;;9.60;4.50;;;;;;;9.88;67.97;98796.05;130809;1251;114124;-63
2023/01/15 11:55:15;;;;;;;6.70;4.70;;;;;;;9.87;68.03;98805.00;132232;1251;115403;-63
2023/01/15 11:58:33;;;;;;;19.20;10.50;;;;;;;9.83;67.77;98803.36;130890;1251;113710;-62
2023/01/15 12:02:42;;;;;;;27.50;17.90;;;;;;;9.81;67.75;98805.11;131272;1251;113655;-63
2023/01/15 12:06:04;;;;;;;26.00;17.10;;;;;;;9.77;67.96;98810.05;130055;1257;128024;-62
2023/01/15 12:09:17;;;;;;;16.70;10.80;;;;;;;9.77;67.72;98818.80;129160;1255;115209;-61
2023/01/15 12:12:44;;;;;;;12.20;8.70;;;;;;;9.73;67.63;98821.72;129174;1254;113214;-61
2023/01/15 12:16:09;;;;;;;21.00;13.50;;;;;;;9.70;67.73;98823.19;129369;1251;113350;-63
2023/01/15 12:19:25;;;;;;;33.30;16.50;;;;;;;9.66;67.64;98824.86;129474;1250;114078;-62
2023/01/15 12:22:55;;;;;;;24.90;12.50;;;;;;;9.63;67.70;98819.70;129512;1257;127666;-62
2023/01/15 12:26:27;;;;;;;28.80;14.90;;;;;;;9.60;67.66;98829.94;129303;1251;116184;-60
2023/01/15 12:30:01;;;;;;;21.80;11.80;;;;;;;9.58;67.70;98839.15;129405;1251;113489;-64
2023/01/15 12:33:19;;;;;;;19.40;10.50;;;;;;;9.57;67.99;98846.85;129119;1250;113226;-61
2023/01/15 12:36:37;;;;;;;17.60;10.90;;;;;;;9.56;67.62;98853.89;129473;1251;114050;-65
2023/01/15 12:39:51;;;;;;;8.40;5.40;;;;;;;9.54;68.07;98867.38;129171;1251;127770;-64
2023/01/15 12:46:28;;;;;;;7.30;3.70;;;;;;;9.41;68.36;98895.52;128886;1257;113334;-64
2023/01/15 12:49:44;;;;;;;3.40;2.00;;;;;;;9.31;68.66;98896.55;128943;1251;114056;-64
2023/01/15 12:53:01;;;;;;;2.00;1.30;;;;;;;9.21;68.49;98912.02;128904;1251;113185;-64
2023/01/15 12:56:21;;;;;;;5.90;3.50;;;;;;;9.11;68.70;98921.38;128845;1257;128697;-62
2023/01/15 12:59:41;;;;;;;5.10;2.50;;;;;;;9.01;68.82;98928.81;128815;1251;115379;-63
2023/01/15 13:03:15;;;;;;;6.20;1.30;;;;;;;8.92;69.14;98931.91;128883;1251;114362;-64
2023/01/15 13:06:22;;;;;;;3.50;1.10;;;;;;;8.80;69.43;98933.34;128906;1256;115307;-62
2023/01/15 13:09:40;;;;;;;2.10;1.70;;;;;;;8.72;69.61;98933.00;128840;1251;115022;-62
2023/01/15 13:12:50;;;;;;;2.60;2.20;;;;;;;8.62;69.70;98949.48;129078;1251;129679;-63
2023/01/15 13:16:23;;;;;;;4.40;2.30;;;;;;;8.53;69.78;98958.55;128894;1256;114697;-62
2023/01/15 13:19:40;;;;;;;4.90;2.30;;;;;;;8.43;69.92;98974.63;128545;1257;116558;-63
2023/01/15 13:23:10;;;;;;;3.30;2.70;;;;;;;8.34;70.28;98979.42;128392;1257;113561;-62
2023/01/15 13:26:16;;;;;;;1.80;1.50;;;;;;;8.28;70.68;98981.27;128456;1257;114411;-61
2023/01/15 13:29:34;;;;;;;2.90;2.20;;;;;;;8.20;71.36;98974.92;128478;1260;128862;-62
2023/01/15 13:32:48;;;;;;;2.60;2.20;;;;;;;8.10;71.33;98990.36;128785;1257;114769;-61
2023/01/15 13:35:56;;;;;;;2.80;2.20;;;;;;;8.01;71.63;99001.38;129041;1259;113522;-63
2023/01/15 13:39:05;;;;;;;4.80;3.90;;;;;;;7.94;71.79;98997.69;129103;1258;113860;-64
2023/01/15 13:42:34;;;;;;;4.10;3.10;;;;;;;7.86;72.06;98984.98;128347;1256;113467;-60
2023/01/15 13:45:43;;;;;;;5.50;4.30;;;;;;;7.82;72.12;98990.23;128746;1260;128648;-62
2023/01/15 13:48:55;;;;;;;3.40;2.80;;;;;;;7.80;72.14;98999.61;128373;1260;114894;-60
2023/01/15 13:52:03;;;;;;;3.30;2.60;;;;;;;7.75;72.42;99003.98;129050;1261;113893;-65
2023/01/15 13:55:34;;;;;;;4.80;3.00;;;;;;;7.68;72.45;99003.67;129503;1257;113909;-62
2023/01/15 13:58:55;;;;;;;3.80;2.40;;;;;;;7.62;72.34;99009.85;129077;1255;114633;-62
2023/01/15 14:02:00;;;;;;;4.60;2.90;;;;;;;7.57;72.57;99027.39;129201;1255;128801;-62
2023/01/15 14:05:36;;;;;;;7.50;3.50;;;;;;;7.50;72.76;99032.20;128898;1253;114760;-60
2023/01/15 14:08:44;;;;;;;3.70;2.40;;;;;;;7.45;72.93;99036.58;128881;1258;114128;-61
2023/01/15 14:12:09;;;;;;;3.20;2.40;;;;;;;7.39;72.98;99052.58;128528;1259;114897;-61
2023/01/15 14:15:26;;;;;;;2.60;1.70;;;;;;;7.30;73.03;99070.12;129071;1262;114691;-62
2023/01/15 14:18:33;;;;;;;2.30;1.70;;;;;;;7.23;73.17;99064.67;128335;1260;127810;-62
2023/01/15 14:21:55;;;;;;;3.50;2.20;;;;;;;7.17;73.22;99068.91;128411;1262;114805;-61
2023/01/15 14:25:25;;;;;;;2.90;1.80;;;;;;;7.11;73.40;99070.80;128449;1259;114889;-62
2023/01/15 14:28:48;;;;;;;2.60;2.30;;;;;;;7.09;73.60;99071.98;128300;1261;114793;-62
2023/01/15 14:32:21;;;;;;;4.20;2.60;;;;;;;7.06;73.66;99075.86;128320;1262;114783;-60
2023/01/15 14:35:39;;;;;;;2.90;1.70;;;;;;;7.02;73.89;99079.31;128172;1262;127673;-62
2023/01/15 14:38:54;;;;;;;2.80;1.70;;;;;;;6.98;73.89;99070.59;128332;1258;115048;-61
2023/01/15 14:45:36;;;;;;;2.70;1.70;;;;;;;6.91;74.08;99091.05;128619;1255;113266;-61
2023/01/15 14:48:41;;;;;;;5.10;2.10;;;;;;;6.88;73.99;99109.34;129200;1256;114769;-62
2023/01/15 14:51:49;;;;;;;5.50;3.20;;;;;;;6.85;74.36;99099.92;129099;1251;127643;-63
2023/01/15 14:54:54;;;;;;;6.80;3.80;;;;;;;6.83;74.54;99093.96;129166;1255;115504;-63
2023/01/15 14:58:07;;;;;;;6.40;3.40;;;;;;;6.81;74.46;99088.75;129201;1255;114737;-62
2023/01/15 15:01:18;;;;;;;5.90;4.40;;;;;;;6.79;74.70;99078.05;129494;1251;114053;-62
2023/01/15 15:04:40;;;;;;;11.70;9.20;;;;;;;6.78;74.85;99073.68;128884;1259;114712;-61
2023/01/15 15:07:47;;;;;;;8.30;5.80;;;;;;;6.76;74.93;99073.23;128939;1255;127765;-61
2023/01/15 15:10:55;;;;;;;8.80;5.70;;;;;;;6.76;74.92;99074.50;129902;1253;114000;-61
2023/01/15 15:14:00;;;;;;;7.70;5.50;;;;;;;6.74;74.83;99068.04;128978;1255;114799;-61
2023/01/15 15:17:11;;;;;;;9.20;4.60;;;;;;;6.73;75.12;99064.54;129034;1255;114462;-61
2023/01/15 15:20:18;;;;;;;21.90;10.70;;;;;;;6.71;75.47;99054.88;128905;1251;113826;-60
2023/01/15 15:23:43;;;;;;;24.30;14.90;;;;;;;6.70;75.25;99049.40;129167;1251;128703;-68
2023/01/15 15:26:49;;;;;;;27.90;16.80;;;;;;;6.70;75.53;99054.05;129040;1256;115427;-64
2023/01/15 15:30:04;;;;;;;24.80;15.60;;;;;;;6.67;75.32;99066.98;129333;1253;114427;-64
2023/01/15 15:33:16;;;;;;;27.60;16.40;;;;;;;6.64;75.56;99072.11;129041;1256;114689;-68
2023/01/15 15:36:30;;;;;;;46.70;26.20;;;;;;;6.61;75.73;99072.61;130730;1251;114674;-66
2023/01/15 15:40:04;;;;;;;59.30;30.20;;;;;;;6.59;75.96;99070.77;128993;1255;128005;-63
2023/01/15 15:50:50;;;;;;;74.30;46.20;;;;;;;6.43;76.00;99114.35;128369;1264;113609;-64
2023/01/15 15:54:25;;;;;;;45.80;35.10;;;;;;;6.38;75.96;99120.77;128250;1259;114920;-64